Topock, AZ (86436)

7:57 PM MST on September 18, 2014 (GMT -0700)
Az Route 66, Mile 6 | Change Station
CLOSE
Current Station
Personal Weather Station
Location: Mohave Valley, AZ
Elevation: 679 ft
Nearby Weather Stations

Elev 679 ft 34.79 °N, 114.48 °W | Updated 11 seconds ago

Clear
Clear
95.0 °F
Feels Like 97 °F
N
2.7
Wind Variable Wind from SE
Gusts 4.9 mph

Today
High -- | Low -- °F
--% Chance of Precip.
Yesterday
High -- | Low -- °F
Precip. -- in
6:23 AM 6:40 PM
Waning Crescent, 22% visible
Pressure 29.53 in
Visibility 10.0 miles
Clouds Clear
Heat Index 97 °F
Dew Point 64 °F
Humidity 36%
Rainfall 0.00 in
Snow Depth 0 in , 1 in , 0 in
UV 0 out of 12
Pollen 7.10 out of 12
Air Quality Not available.
Flu Activity Not available.
METAR KEED 190156Z AUTO 18009KT 10SM CLR 37/16 A2963 RMK AO2 SLP999 T03670156

More Conditions Fewer Conditions

Pressure 29.53 in
Visibility 10.0 miles
Clouds Clear
Heat Index 97 °F
Dew Point 64 °F
Humidity 36%
Rainfall 0.00 in
Snow Depth 0 in , 1 in , 0 in
UV 0 out of 12
Pollen 7.10 out of 12
Air Quality Not available.
Flu Activity Not available.
METAR KEED 190156Z AUTO 18009KT 10SM CLR 37/16 A2963 RMK AO2 SLP999 T03670156

More Conditions Fewer Conditions

10-Day Weather Forecast

Almanac

Astronomy

Sep. 18, 2014 Rise Set
Actual Time 6:23 AM MST 6:40 PM MST
Civil Twilight 5:57 AM MST 7:05 PM MST
Nautical Twilight 5:28 AM MST 7:35 PM MST
Astronomical Twilight 4:58 AM MST 8:04 PM MST
Moon 1:28 AM MST (9/18) 3:25 PM MST (9/18)
Length of Visible Light 13h 07m
Length of Day
12h 17m
Tomorrow will be 2m 9s shorter.
Waning Crescent, 22% of the Moon is Illuminated
Today
Waning Crescent
Sep 24
New
Oct 1
First Quarter
Oct 8
Full
Oct 15
Last Quarter

Today's Extremes

State Highs State Lows

Community

WunderPhotos

Upload Photos

1,754,546 photos uploaded!

Nearby

Snow Depth

Station Depth Elevation
Beaver Head 0 in 7990 ft
Workman Creek 1 in 6900 ft
Promontory 0 in 7930 ft
Maverick Fork 0 in 9200 ft
Coronado Trail 0 in 8400 ft

Earthquake Activity

City Distance Mag. Time & Date
La Quinta, California 139 miles 2.7 8:59 PM MST
2014-09-15
Minimum magnitude displayed is 2.5.

Coastal Water Temperatures

Place Temperature
No Stations Reporting

Nearby Weather Stations